| time (UTC) | temp C | wind direction | speed KPH | gust KPH | rain 1hr cm | rain 24hr cm | rain mn cm | humidity % | barometer mb |
| 20260503034507 | 23 | 287 | 0.0 | 6.4 | 0.00 | 0.00 | 0.00 | 91 | 1014.6 |
| 20260503033006 | 23 | 261 | 1.6 | 9.7 | 0.00 | 0.00 | 0.00 | 90 | 1014.1 |
| 20260503031504 | 23 | 244 | 0.0 | 4.8 | 0.00 | 0.00 | 0.00 | 89 | 1013.8 |
| 20260503030004 | 23 | 118 | 0.0 | 1.6 | 0.00 | 0.00 | 0.00 | 88 | 1013.7 |
| 20260503024502 | 23 | 170 | 0.0 | 1.6 | 0.00 | 0.00 | 0.00 | 89 | 1014.1 |
| 20260503023101 | 23 | 170 | 0.0 | 3.2 | 0.00 | 0.00 | 0.00 | 88 | 1014.0 |
| 20260503021559 | 23 | 168 | 0.0 | 3.2 | 0.00 | 0.00 | 0.00 | 89 | 1013.6 |
| 20260503021502 | 23 | 168 | 0.0 | 3.2 | 0.00 | 0.00 | 0.00 | 89 | 1013.5 |
| 20260503020100 | 23 | 263 | 0.0 | 3.2 | 0.00 | 0.00 | 0.00 | 88 | 1013.9 |
| 20260503014615 | 23 | 117 | 0.0 | 3.2 | 0.00 | 0.00 | 0.00 | 88 | 1013.5 |
| 20260503013058 | 23 | 95 | 0.0 | 0.0 | 0.00 | 0.00 | 0.00 | 88 | 1013.6 |
| 20260503011556 | 23 | 90 | 0.0 | 0.0 | 0.00 | 0.00 | 0.00 | 88 | 1013.7 |
| 20260503010056 | 23 | 90 | 0.0 | 1.6 | 0.00 | 0.00 | 0.00 | 88 | 1013.6 |
| 20260503004556 | 23 | 53 | 0.0 | 3.2 | 0.00 | 0.00 | 0.00 | 88 | 1013.7 |
| 20260503003103 | 23 | 95 | 0.0 | 0.0 | 0.00 | 0.00 | 0.00 | 87 | 1013.4 |
| 20260503001608 | 23 | 95 | 4.8 | 12.9 | 0.00 | 0.00 | 0.00 | 88 | 1013.0 |
| 20260503000051 | 25 | 76 | 8.0 | 20.9 | 0.00 | 0.00 | 0.00 | 82 | 1013.1 |
| 20260502234550 | 28 | 352 | 3.2 | 14.5 | 0.00 | 0.00 | 0.00 | 81 | 1012.6 |
| 20260502233046 | 28 | 283 | 3.2 | 14.5 | 0.00 | 0.00 | 0.00 | 80 | 1012.4 |
| 20260502231543 | 28 | 305 | 3.2 | 11.3 | 0.00 | 0.00 | 0.00 | 79 | 1012.2 |
| 20260502230042 | 29 | 342 | 8.0 | 17.7 | 0.00 | 0.00 | 0.00 | 77 | 1012.2 |
| 20260502224542 | 29 | 2 | 4.8 | 19.3 | 0.00 | 0.00 | 0.00 | 75 | 1011.8 |
| 20260502223042 | 30 | 307 | 1.6 | 12.9 | 0.00 | 0.00 | 0.00 | 72 | 1011.7 |
| 20260502221544 | 30 | 328 | 4.8 | 12.9 | 0.00 | 0.00 | 0.00 | 70 | 1011.4 |
| 20260502220040 | 30 | 324 | 1.6 | 20.9 | 0.00 | 0.00 | 0.00 | 68 | 1011.4 |
| 20260502214547 | 31 | 270 | 4.8 | 27.4 | 0.00 | 0.00 | 0.00 | 65 | 1011.1 |
| 20260502213040 | 32 | 336 | 8.0 | 17.7 | 0.00 | 0.00 | 0.00 | 63 | 1011.1 |
| 20260502211538 | 32 | 288 | 4.8 | 17.7 | 0.00 | 0.00 | 0.00 | 60 | 1011.0 |
| 20260502210038 | 33 | 11 | 11.3 | 24.1 | 0.00 | 0.00 | 0.00 | 58 | 1010.9 |
| 20260502204536 | 33 | 272 | 6.4 | 16.1 | 0.00 | 0.00 | 0.00 | 56 | 1010.6 |
| 20260502203037 | 33 | 285 | 4.8 | 24.1 | 0.00 | 0.00 | 0.00 | 59 | 1010.6 |
| 20260502201533 | 33 | 338 | 9.7 | 22.5 | 0.00 | 0.00 | 0.00 | 56 | 1010.7 |
| 20260502200033 | 33 | 305 | 6.4 | 16.1 | 0.00 | 0.00 | 0.00 | 55 | 1010.7 |
| 20260502194531 | 33 | 359 | 4.8 | 24.1 | 0.00 | 0.00 | 0.00 | 54 | 1010.8 |
| 20260502193032 | 33 | 291 | 12.9 | 25.7 | 0.00 | 0.00 | 0.00 | 55 | 1011.0 |
| 20260502191529 | 33 | 282 | 8.0 | 25.7 | 0.00 | 0.00 | 0.00 | 54 | 1011.2 |
| 20260502190026 | 33 | 315 | 8.0 | 20.9 | 0.00 | 0.00 | 0.00 | 52 | 1011.3 |
| 20260502184532 | 33 | 334 | 8.0 | 24.1 | 0.00 | 0.00 | 0.00 | 53 | 1011.4 |
| 20260502183023 | 33 | 353 | 6.4 | 20.9 | 0.00 | 0.00 | 0.00 | 57 | 1011.6 |
| 20260502181528 | 33 | 298 | 9.7 | 20.9 | 0.00 | 0.00 | 0.00 | 57 | 1011.7 |
| 20260502163012 | 32 | 325 | 4.8 | 20.9 | 0.00 | 0.00 | 0.00 | 71 | 1012.0 |
| 20260502161510 | 32 | 261 | 12.9 | 25.7 | 0.00 | 0.00 | 0.00 | 67 | 1012.1 |
| 20260502151622 | 31 | 338 | 8.0 | 19.3 | 0.00 | 0.00 | 0.00 | 74 | 1012.1 |
| 20260502150107 | 30 | 287 | 11.3 | 24.1 | 0.00 | 0.00 | 0.00 | 75 | 1012.0 |
| 20260502123023 | 23 | 271 | 0.0 | 8.0 | 0.00 | 0.00 | 0.00 | 90 | 1011.4 |
| 20260502121519 | 23 | 257 | 1.6 | 8.0 | 0.00 | 0.00 | 0.00 | 91 | 1011.3 |
| 20260502114515 | 22 | 261 | 0.0 | 1.6 | 0.00 | 0.00 | 0.00 | 92 | 1011.3 |
| 20260502113014 | 22 | 253 | 0.0 | 0.0 | 0.00 | 0.00 | 0.00 | 92 | 1011.3 |
| 20260502111515 | 22 | 253 | 0.0 | 8.0 | 0.00 | 0.00 | 0.00 | 92 | 1011.3 |
| 20260502110013 | 21 | 249 | 1.6 | 8.0 | 0.00 | 0.00 | 0.00 | 91 | 1011.2 |
| 20260502104512 | 22 | 238 | 0.0 | 4.8 | 0.00 | 0.00 | 0.00 | 91 | 1011.2 |
| 20260502103013 | 22 | 234 | 0.0 | 4.8 | 0.00 | 0.00 | 0.00 | 91 | 1011.2 |
| 20260502101511 | 22 | 193 | 0.0 | 4.8 | 0.00 | 0.00 | 0.00 | 91 | 1011.2 |
| 20260502091507 | 21 | 190 | 0.0 | 4.8 | 0.00 | 0.00 | 0.00 | 92 | 1011.4 |
| 20260502070100 | 21 | 151 | 0.0 | 0.0 | 0.00 | 0.00 | 0.00 | 91 | 1012.0 |
| 20260502064602 | 21 | 149 | 1.6 | 4.8 | 0.00 | 0.00 | 0.00 | 91 | 1011.8 |
| 20260502063057 | 21 | 172 | 0.0 | 4.8 | 0.00 | 0.00 | 0.00 | 90 | 1012.0 |
| 20260502061555 | 21 | 230 | 3.2 | 12.9 | 0.00 | 0.00 | 0.00 | 90 | 1012.0 |
| 20260502060056 | 21 | 240 | 0.0 | 1.6 | 0.00 | 0.00 | 0.00 | 90 | 1011.8 |
| 20260502054555 | 22 | 240 | 0.0 | 3.2 | 0.00 | 0.00 | 0.00 | 90 | 1011.7 |
| 20260502053108 | 22 | 250 | 0.0 | 1.6 | 0.00 | 0.00 | 0.00 | 90 | 1011.7 |
| 20260502051550 | 22 | 250 | 0.0 | 3.2 | 0.00 | 0.00 | 0.00 | 89 | 1011.9 |
| 20260502050047 | 22 | 258 | 0.0 | 1.6 | 0.00 | 0.00 | 0.00 | 89 | 1011.8 |
| 20260502044545 | 22 | 258 | 0.0 | 1.6 | 0.00 | 0.00 | 0.00 | 88 | 1011.8 |
| 20260502043044 | 22 | 258 | 0.0 | 1.6 | 0.00 | 0.00 | 0.00 | 87 | 1011.8 |
| 20260502041544 | 22 | 258 | 0.0 | 0.0 | 0.00 | 0.00 | 0.00 | 87 | 1011.9 |
| 20260502040044 | 22 | 268 | 0.0 | 1.6 | 0.00 | 0.00 | 0.00 | 86 | 1012.1 |